Indian Creek, Florida
Current Conditions -  °F | °C
As of 5:53 AM on Wednesday 26 Nov 2014 (Local Time) from KOPF Reporting Station
Clear Clear  
Wind Chill: 78°   Ceiling: Unl
Heat Index: 81°   Visibility: 10mi
Dew Point: 75°   Wind: 10mph
Humidity: 90%   Direction: 200°SSW
Pressure: 29.95"   Gusts: NA
Location:  25.882°N, 80.1292°W
Report Text: KOPF 261053Z AUTO 20009KT 10SM CLR 26/24 A2995 RMK AO2 SLP143 T02560239
Loading
Personal Weather Stations






























Interactive Weather Map New forecast layout! Learn more

10-Day Weather Forecast

Advertisements
Track Severe Weather on mobile